sensor_id;sensor_type;location;lat;lon;timestamp;P1;durP1;ratioP1;P2;durP2;ratioP2
78612;SDS011;67933;51.060;3.638;2023-06-22T00:00:50;6.28;;;3.15;;
78612;SDS011;67933;51.060;3.638;2023-06-22T00:03:17;4.95;;;2.92;;
78612;SDS011;67933;51.060;3.638;2023-06-22T00:05:44;6.25;;;3.67;;
78612;SDS011;67933;51.060;3.638;2023-06-22T00:08:10;5.38;;;3.13;;
78612;SDS011;67933;51.060;3.638;2023-06-22T00:10:35;5.20;;;2.97;;
78612;SDS011;67933;51.060;3.638;2023-06-22T00:13:01;3.60;;;2.95;;
78612;SDS011;67933;51.060;3.638;2023-06-22T00:15:27;3.97;;;3.05;;
78612;SDS011;67933;51.060;3.638;2023-06-22T00:17:53;5.30;;;2.95;;
78612;SDS011;67933;51.060;3.638;2023-06-22T00:20:19;4.38;;;3.25;;
78612;SDS011;67933;51.060;3.638;2023-06-22T00:22:48;5.65;;;3.25;;
78612;SDS011;67933;51.060;3.638;2023-06-22T00:25:14;4.32;;;2.83;;
78612;SDS011;67933;51.060;3.638;2023-06-22T00:27:39;4.68;;;3.20;;
78612;SDS011;67933;51.060;3.638;2023-06-22T00:30:06;6.90;;;3.00;;
78612;SDS011;67933;51.060;3.638;2023-06-22T00:32:31;5.93;;;3.53;;
78612;SDS011;67933;51.060;3.638;2023-06-22T00:35:00;4.35;;;2.92;;
78612;SDS011;67933;51.060;3.638;2023-06-22T00:37:26;4.15;;;3.05;;
78612;SDS011;67933;51.060;3.638;2023-06-22T00:39:54;4.80;;;2.97;;
78612;SDS011;67933;51.060;3.638;2023-06-22T00:42:22;5.07;;;2.70;;
78612;SDS011;67933;51.060;3.638;2023-06-22T00:44:50;8.27;;;3.08;;
78612;SDS011;67933;51.060;3.638;2023-06-22T00:47:17;5.03;;;3.35;;
78612;SDS011;67933;51.060;3.638;2023-06-22T00:49:43;5.28;;;3.00;;
78612;SDS011;67933;51.060;3.638;2023-06-22T00:52:10;4.25;;;2.67;;
78612;SDS011;67933;51.060;3.638;2023-06-22T00:54:39;3.75;;;2.80;;
78612;SDS011;67933;51.060;3.638;2023-06-22T00:57:08;4.55;;;2.72;;
78612;SDS011;67933;51.060;3.638;2023-06-22T00:59:36;5.15;;;3.47;;
78612;SDS011;67933;51.060;3.638;2023-06-22T01:02:02;5.65;;;3.40;;
78612;SDS011;67933;51.060;3.638;2023-06-22T01:04:34;5.55;;;3.33;;
78612;SDS011;67933;51.060;3.638;2023-06-22T01:10:07;4.70;;;3.53;;
78612;SDS011;67933;51.060;3.638;2023-06-22T01:12:48;6.93;;;3.65;;
78612;SDS011;67933;51.060;3.638;2023-06-22T01:15:23;5.72;;;3.45;;
78612;SDS011;67933;51.060;3.638;2023-06-22T01:17:53;7.32;;;3.92;;
78612;SDS011;67933;51.060;3.638;2023-06-22T01:20:21;5.22;;;3.63;;
78612;SDS011;67933;51.060;3.638;2023-06-22T01:25:33;5.05;;;3.83;;
78612;SDS011;67933;51.060;3.638;2023-06-22T01:28:57;5.55;;;3.95;;
78612;SDS011;67933;51.060;3.638;2023-06-22T01:31:08;5.20;;;3.90;;
78612;SDS011;67933;51.060;3.638;2023-06-22T01:33:37;5.82;;;3.78;;
78612;SDS011;67933;51.060;3.638;2023-06-22T01:36:06;7.32;;;3.83;;
78612;SDS011;67933;51.060;3.638;2023-06-22T01:38:32;5.60;;;3.63;;
78612;SDS011;67933;51.060;3.638;2023-06-22T01:40:58;6.03;;;4.05;;
78612;SDS011;67933;51.060;3.638;2023-06-22T01:43:26;8.50;;;3.85;;
78612;SDS011;67933;51.060;3.638;2023-06-22T01:45:53;7.53;;;3.92;;
78612;SDS011;67933;51.060;3.638;2023-06-22T01:48:19;7.43;;;3.67;;
78612;SDS011;67933;51.060;3.638;2023-06-22T01:50:45;5.97;;;3.38;;
78612;SDS011;67933;51.060;3.638;2023-06-22T01:53:11;5.75;;;3.47;;
78612;SDS011;67933;51.060;3.638;2023-06-22T01:55:36;7.53;;;4.55;;
78612;SDS011;67933;51.060;3.638;2023-06-22T01:58:01;5.43;;;3.53;;
78612;SDS011;67933;51.060;3.638;2023-06-22T02:00:27;6.53;;;4.05;;
78612;SDS011;67933;51.060;3.638;2023-06-22T02:02:57;5.95;;;3.70;;
78612;SDS011;67933;51.060;3.638;2023-06-22T02:05:29;7.28;;;3.92;;
78612;SDS011;67933;51.060;3.638;2023-06-22T02:08:01;4.75;;;3.53;;
78612;SDS011;67933;51.060;3.638;2023-06-22T02:10:32;7.15;;;4.32;;
78612;SDS011;67933;51.060;3.638;2023-06-22T02:12:59;7.32;;;4.45;;
78612;SDS011;67933;51.060;3.638;2023-06-22T02:15:27;5.63;;;4.05;;
78612;SDS011;67933;51.060;3.638;2023-06-22T02:17:53;6.50;;;3.92;;
78612;SDS011;67933;51.060;3.638;2023-06-22T02:20:19;7.85;;;4.15;;
78612;SDS011;67933;51.060;3.638;2023-06-22T02:22:45;5.95;;;4.20;;
78612;SDS011;67933;51.060;3.638;2023-06-22T02:25:10;9.55;;;4.70;;
78612;SDS011;67933;51.060;3.638;2023-06-22T02:27:36;9.07;;;5.40;;
78612;SDS011;67933;51.060;3.638;2023-06-22T02:30:01;11.05;;;6.30;;
78612;SDS011;67933;51.060;3.638;2023-06-22T02:32:27;11.90;;;6.80;;
78612;SDS011;67933;51.060;3.638;2023-06-22T02:34:52;10.77;;;6.53;;
78612;SDS011;67933;51.060;3.638;2023-06-22T02:37:18;12.05;;;7.18;;
78612;SDS011;67933;51.060;3.638;2023-06-22T02:39:43;11.10;;;6.15;;
78612;SDS011;67933;51.060;3.638;2023-06-22T02:42:09;9.73;;;6.50;;
78612;SDS011;67933;51.060;3.638;2023-06-22T02:44:37;13.05;;;5.75;;
78612;SDS011;67933;51.060;3.638;2023-06-22T02:47:03;12.50;;;6.55;;
78612;SDS011;67933;51.060;3.638;2023-06-22T02:49:28;11.52;;;7.15;;
78612;SDS011;67933;51.060;3.638;2023-06-22T02:51:54;14.50;;;6.05;;
78612;SDS011;67933;51.060;3.638;2023-06-22T02:54:20;11.88;;;6.60;;
78612;SDS011;67933;51.060;3.638;2023-06-22T02:56:47;11.57;;;6.50;;
78612;SDS011;67933;51.060;3.638;2023-06-22T02:59:13;11.25;;;6.72;;
78612;SDS011;67933;51.060;3.638;2023-06-22T03:01:38;9.90;;;6.70;;
78612;SDS011;67933;51.060;3.638;2023-06-22T03:04:07;8.98;;;5.78;;
78612;SDS011;67933;51.060;3.638;2023-06-22T03:06:32;9.13;;;5.57;;
78612;SDS011;67933;51.060;3.638;2023-06-22T03:09:04;10.00;;;5.82;;
78612;SDS011;67933;51.060;3.638;2023-06-22T03:11:30;9.25;;;5.60;;
78612;SDS011;67933;51.060;3.638;2023-06-22T03:13:57;8.40;;;5.72;;
78612;SDS011;67933;51.060;3.638;2023-06-22T03:16:22;10.63;;;5.55;;
78612;SDS011;67933;51.060;3.638;2023-06-22T03:18:48;9.10;;;5.90;;
78612;SDS011;67933;51.060;3.638;2023-06-22T03:21:13;9.18;;;5.80;;
78612;SDS011;67933;51.060;3.638;2023-06-22T03:23:40;8.38;;;5.25;;
78612;SDS011;67933;51.060;3.638;2023-06-22T03:26:06;12.35;;;6.10;;
78612;SDS011;67933;51.060;3.638;2023-06-22T03:28:34;10.45;;;6.47;;
78612;SDS011;67933;51.060;3.638;2023-06-22T03:30:59;12.55;;;7.50;;
78612;SDS011;67933;51.060;3.638;2023-06-22T03:33:25;9.82;;;5.70;;
78612;SDS011;67933;51.060;3.638;2023-06-22T03:35:51;9.57;;;6.60;;
78612;SDS011;67933;51.060;3.638;2023-06-22T03:38:16;10.85;;;6.28;;
78612;SDS011;67933;51.060;3.638;2023-06-22T03:40:42;9.10;;;5.97;;
78612;SDS011;67933;51.060;3.638;2023-06-22T03:43:08;10.75;;;6.72;;
78612;SDS011;67933;51.060;3.638;2023-06-22T03:45:34;11.02;;;6.97;;
78612;SDS011;67933;51.060;3.638;2023-06-22T03:48:00;13.65;;;7.50;;
78612;SDS011;67933;51.060;3.638;2023-06-22T03:50:25;12.85;;;7.47;;
78612;SDS011;67933;51.060;3.638;2023-06-22T03:52:51;12.82;;;7.35;;
78612;SDS011;67933;51.060;3.638;2023-06-22T03:55:17;10.50;;;7.35;;
78612;SDS011;67933;51.060;3.638;2023-06-22T03:57:44;10.80;;;7.47;;
78612;SDS011;67933;51.060;3.638;2023-06-22T04:00:10;12.57;;;6.60;;
78612;SDS011;67933;51.060;3.638;2023-06-22T04:02:36;13.80;;;7.20;;
78612;SDS011;67933;51.060;3.638;2023-06-22T04:05:01;11.05;;;6.55;;
78612;SDS011;67933;51.060;3.638;2023-06-22T04:07:27;8.25;;;5.72;;
78612;SDS011;67933;51.060;3.638;2023-06-22T04:09:52;13.48;;;7.65;;
78612;SDS011;67933;51.060;3.638;2023-06-22T04:12:17;11.55;;;6.88;;
78612;SDS011;67933;51.060;3.638;2023-06-22T04:14:43;13.30;;;7.30;;
78612;SDS011;67933;51.060;3.638;2023-06-22T04:17:08;12.35;;;6.85;;
78612;SDS011;67933;51.060;3.638;2023-06-22T04:19:34;11.68;;;7.00;;
78612;SDS011;67933;51.060;3.638;2023-06-22T04:21:59;12.27;;;7.25;;
78612;SDS011;67933;51.060;3.638;2023-06-22T04:24:24;13.52;;;8.07;;
78612;SDS011;67933;51.060;3.638;2023-06-22T04:26:50;12.70;;;8.48;;
78612;SDS011;67933;51.060;3.638;2023-06-22T04:29:19;12.32;;;8.07;;
78612;SDS011;67933;51.060;3.638;2023-06-22T04:31:45;11.15;;;7.20;;
78612;SDS011;67933;51.060;3.638;2023-06-22T04:34:16;11.20;;;7.47;;
78612;SDS011;67933;51.060;3.638;2023-06-22T04:36:41;12.50;;;8.15;;
78612;SDS011;67933;51.060;3.638;2023-06-22T04:39:07;13.70;;;8.63;;
78612;SDS011;67933;51.060;3.638;2023-06-22T04:41:38;16.40;;;10.07;;
78612;SDS011;67933;51.060;3.638;2023-06-22T04:44:09;16.20;;;10.05;;
78612;SDS011;67933;51.060;3.638;2023-06-22T04:46:58;15.75;;;10.23;;
78612;SDS011;67933;51.060;3.638;2023-06-22T04:49:27;18.65;;;11.38;;
78612;SDS011;67933;51.060;3.638;2023-06-22T04:51:57;17.70;;;10.82;;
78612;SDS011;67933;51.060;3.638;2023-06-22T04:54:24;16.88;;;10.60;;
78612;SDS011;67933;51.060;3.638;2023-06-22T04:56:49;16.80;;;10.40;;
78612;SDS011;67933;51.060;3.638;2023-06-22T04:59:24;19.00;;;10.55;;
78612;SDS011;67933;51.060;3.638;2023-06-22T05:01:53;16.27;;;10.20;;
78612;SDS011;67933;51.060;3.638;2023-06-22T05:04:19;18.73;;;10.90;;
78612;SDS011;67933;51.060;3.638;2023-06-22T05:06:44;21.08;;;11.07;;
78612;SDS011;67933;51.060;3.638;2023-06-22T05:09:10;18.10;;;10.43;;
78612;SDS011;67933;51.060;3.638;2023-06-22T05:11:37;20.75;;;11.25;;
78612;SDS011;67933;51.060;3.638;2023-06-22T05:14:03;19.30;;;11.80;;
78612;SDS011;67933;51.060;3.638;2023-06-22T05:16:28;20.15;;;11.65;;
78612;SDS011;67933;51.060;3.638;2023-06-22T05:18:54;18.15;;;11.52;;
78612;SDS011;67933;51.060;3.638;2023-06-22T05:21:23;18.30;;;11.52;;
78612;SDS011;67933;51.060;3.638;2023-06-22T05:23:51;20.38;;;12.82;;
78612;SDS011;67933;51.060;3.638;2023-06-22T05:26:17;18.13;;;10.73;;
78612;SDS011;67933;51.060;3.638;2023-06-22T05:28:46;19.65;;;12.13;;
78612;SDS011;67933;51.060;3.638;2023-06-22T05:31:13;19.23;;;11.60;;
78612;SDS011;67933;51.060;3.638;2023-06-22T05:33:39;21.15;;;12.55;;
78612;SDS011;67933;51.060;3.638;2023-06-22T05:36:04;17.25;;;10.77;;
78612;SDS011;67933;51.060;3.638;2023-06-22T05:38:30;19.13;;;12.20;;
78612;SDS011;67933;51.060;3.638;2023-06-22T05:40:56;20.80;;;12.13;;
78612;SDS011;67933;51.060;3.638;2023-06-22T05:43:21;19.60;;;11.20;;
78612;SDS011;67933;51.060;3.638;2023-06-22T05:45:47;23.45;;;12.18;;
78612;SDS011;67933;51.060;3.638;2023-06-22T05:48:12;22.60;;;11.70;;
78612;SDS011;67933;51.060;3.638;2023-06-22T05:50:37;19.58;;;11.55;;
78612;SDS011;67933;51.060;3.638;2023-06-22T05:53:03;19.15;;;11.95;;
78612;SDS011;67933;51.060;3.638;2023-06-22T05:55:28;18.10;;;10.52;;
78612;SDS011;67933;51.060;3.638;2023-06-22T05:57:54;20.23;;;11.85;;
78612;SDS011;67933;51.060;3.638;2023-06-22T06:00:19;19.83;;;11.40;;
78612;SDS011;67933;51.060;3.638;2023-06-22T06:02:45;20.63;;;12.05;;
78612;SDS011;67933;51.060;3.638;2023-06-22T06:05:11;25.98;;;12.10;;
78612;SDS011;67933;51.060;3.638;2023-06-22T06:07:40;20.35;;;11.82;;
78612;SDS011;67933;51.060;3.638;2023-06-22T06:10:08;23.20;;;12.07;;
78612;SDS011;67933;51.060;3.638;2023-06-22T06:12:34;20.92;;;11.23;;
78612;SDS011;67933;51.060;3.638;2023-06-22T06:14:59;21.52;;;12.48;;
78612;SDS011;67933;51.060;3.638;2023-06-22T06:17:24;21.83;;;12.68;;
78612;SDS011;67933;51.060;3.638;2023-06-22T06:19:50;18.58;;;11.20;;
78612;SDS011;67933;51.060;3.638;2023-06-22T06:22:15;21.92;;;12.32;;
78612;SDS011;67933;51.060;3.638;2023-06-22T06:24:41;20.85;;;11.50;;
78612;SDS011;67933;51.060;3.638;2023-06-22T06:27:06;21.45;;;13.30;;
78612;SDS011;67933;51.060;3.638;2023-06-22T06:29:31;20.73;;;11.57;;
78612;SDS011;67933;51.060;3.638;2023-06-22T06:31:57;44.15;;;14.10;;
78612;SDS011;67933;51.060;3.638;2023-06-22T06:34:22;22.42;;;12.35;;
78612;SDS011;67933;51.060;3.638;2023-06-22T06:36:48;20.92;;;12.55;;
78612;SDS011;67933;51.060;3.638;2023-06-22T06:39:13;19.45;;;12.13;;
78612;SDS011;67933;51.060;3.638;2023-06-22T06:41:38;21.85;;;12.20;;
78612;SDS011;67933;51.060;3.638;2023-06-22T06:44:04;22.65;;;13.50;;
78612;SDS011;67933;51.060;3.638;2023-06-22T06:46:29;26.15;;;14.23;;
78612;SDS011;67933;51.060;3.638;2023-06-22T06:48:55;23.48;;;13.38;;
78612;SDS011;67933;51.060;3.638;2023-06-22T06:51:20;20.02;;;12.20;;
78612;SDS011;67933;51.060;3.638;2023-06-22T06:53:45;23.27;;;12.45;;
78612;SDS011;67933;51.060;3.638;2023-06-22T06:56:11;24.08;;;12.80;;
78612;SDS011;67933;51.060;3.638;2023-06-22T06:58:37;22.65;;;13.18;;
78612;SDS011;67933;51.060;3.638;2023-06-22T07:01:04;24.50;;;13.57;;
78612;SDS011;67933;51.060;3.638;2023-06-22T07:03:29;23.27;;;12.68;;
78612;SDS011;67933;51.060;3.638;2023-06-22T07:05:55;18.65;;;11.98;;
78612;SDS011;67933;51.060;3.638;2023-06-22T07:08:20;21.65;;;13.50;;
78612;SDS011;67933;51.060;3.638;2023-06-22T07:10:46;21.40;;;12.90;;
78612;SDS011;67933;51.060;3.638;2023-06-22T07:13:12;23.25;;;13.40;;
78612;SDS011;67933;51.060;3.638;2023-06-22T07:15:37;23.45;;;13.40;;
78612;SDS011;67933;51.060;3.638;2023-06-22T07:18:03;19.60;;;13.18;;
78612;SDS011;67933;51.060;3.638;2023-06-22T07:20:28;21.90;;;12.88;;
78612;SDS011;67933;51.060;3.638;2023-06-22T07:22:53;19.42;;;13.77;;
78612;SDS011;67933;51.060;3.638;2023-06-22T07:25:19;19.95;;;13.57;;
78612;SDS011;67933;51.060;3.638;2023-06-22T07:28:06;18.50;;;13.38;;
78612;SDS011;67933;51.060;3.638;2023-06-22T07:30:31;20.70;;;13.30;;
78612;SDS011;67933;51.060;3.638;2023-06-22T07:32:58;20.75;;;12.95;;
78612;SDS011;67933;51.060;3.638;2023-06-22T07:35:28;22.50;;;13.75;;
78612;SDS011;67933;51.060;3.638;2023-06-22T07:37:54;19.83;;;13.52;;
78612;SDS011;67933;51.060;3.638;2023-06-22T07:40:19;20.75;;;13.23;;
78612;SDS011;67933;51.060;3.638;2023-06-22T07:42:45;22.10;;;14.27;;
78612;SDS011;67933;51.060;3.638;2023-06-22T07:45:13;24.48;;;14.95;;
78612;SDS011;67933;51.060;3.638;2023-06-22T07:47:39;20.80;;;14.20;;
78612;SDS011;67933;51.060;3.638;2023-06-22T07:50:04;27.30;;;15.35;;
78612;SDS011;67933;51.060;3.638;2023-06-22T07:52:30;27.55;;;15.70;;
78612;SDS011;67933;51.060;3.638;2023-06-22T07:54:56;21.17;;;14.88;;
78612;SDS011;67933;51.060;3.638;2023-06-22T07:57:22;23.55;;;15.93;;
78612;SDS011;67933;51.060;3.638;2023-06-22T07:59:47;22.35;;;15.82;;
78612;SDS011;67933;51.060;3.638;2023-06-22T08:02:13;21.50;;;15.77;;
78612;SDS011;67933;51.060;3.638;2023-06-22T08:04:38;21.45;;;14.75;;
78612;SDS011;67933;51.060;3.638;2023-06-22T08:07:04;23.23;;;14.95;;
78612;SDS011;67933;51.060;3.638;2023-06-22T08:09:31;24.27;;;15.50;;
78612;SDS011;67933;51.060;3.638;2023-06-22T08:11:58;23.27;;;15.85;;
78612;SDS011;67933;51.060;3.638;2023-06-22T08:14:26;24.50;;;17.63;;
78612;SDS011;67933;51.060;3.638;2023-06-22T08:16:52;24.90;;;16.60;;
78612;SDS011;67933;51.060;3.638;2023-06-22T08:19:18;23.63;;;17.05;;
78612;SDS011;67933;51.060;3.638;2023-06-22T08:21:43;24.08;;;17.00;;
78612;SDS011;67933;51.060;3.638;2023-06-22T08:24:09;23.92;;;16.75;;
78612;SDS011;67933;51.060;3.638;2023-06-22T08:26:34;22.60;;;16.02;;
78612;SDS011;67933;51.060;3.638;2023-06-22T08:31:30;20.65;;;13.82;;
78612;SDS011;67933;51.060;3.638;2023-06-22T08:33:58;17.40;;;12.35;;
78612;SDS011;67933;51.060;3.638;2023-06-22T08:36:24;21.33;;;13.35;;
78612;SDS011;67933;51.060;3.638;2023-06-22T08:38:50;17.77;;;12.95;;
78612;SDS011;67933;51.060;3.638;2023-06-22T08:41:17;19.88;;;13.85;;
78612;SDS011;67933;51.060;3.638;2023-06-22T08:43:43;18.02;;;12.57;;
78612;SDS011;67933;51.060;3.638;2023-06-22T08:46:09;21.45;;;14.15;;
78612;SDS011;67933;51.060;3.638;2023-06-22T08:48:35;19.70;;;14.20;;
78612;SDS011;67933;51.060;3.638;2023-06-22T08:51:01;20.05;;;13.73;;
78612;SDS011;67933;51.060;3.638;2023-06-22T08:53:27;23.85;;;14.63;;
78612;SDS011;67933;51.060;3.638;2023-06-22T08:55:52;21.40;;;14.65;;
78612;SDS011;67933;51.060;3.638;2023-06-22T08:58:18;20.95;;;13.95;;
78612;SDS011;67933;51.060;3.638;2023-06-22T09:00:45;21.65;;;15.43;;
78612;SDS011;67933;51.060;3.638;2023-06-22T09:03:10;21.80;;;14.88;;
78612;SDS011;67933;51.060;3.638;2023-06-22T09:05:36;20.05;;;14.75;;
78612;SDS011;67933;51.060;3.638;2023-06-22T09:08:02;19.08;;;14.82;;
78612;SDS011;67933;51.060;3.638;2023-06-22T09:10:27;18.52;;;14.15;;
78612;SDS011;67933;51.060;3.638;2023-06-22T09:12:53;18.92;;;14.52;;
78612;SDS011;67933;51.060;3.638;2023-06-22T09:15:19;20.15;;;15.07;;
78612;SDS011;67933;51.060;3.638;2023-06-22T09:17:46;24.17;;;15.40;;
78612;SDS011;67933;51.060;3.638;2023-06-22T09:20:11;24.67;;;15.93;;
78612;SDS011;67933;51.060;3.638;2023-06-22T09:22:37;20.55;;;14.85;;
78612;SDS011;67933;51.060;3.638;2023-06-22T09:25:04;19.75;;;14.02;;
78612;SDS011;67933;51.060;3.638;2023-06-22T09:27:30;21.25;;;15.10;;
78612;SDS011;67933;51.060;3.638;2023-06-22T09:29:59;20.08;;;13.93;;
78612;SDS011;67933;51.060;3.638;2023-06-22T09:32:28;19.27;;;13.52;;
78612;SDS011;67933;51.060;3.638;2023-06-22T09:34:53;18.17;;;13.18;;
78612;SDS011;67933;51.060;3.638;2023-06-22T09:37:19;19.55;;;12.77;;
78612;SDS011;67933;51.060;3.638;2023-06-22T09:39:44;18.27;;;12.25;;
78612;SDS011;67933;51.060;3.638;2023-06-22T09:42:10;19.88;;;11.95;;
78612;SDS011;67933;51.060;3.638;2023-06-22T09:44:35;18.35;;;12.93;;
78612;SDS011;67933;51.060;3.638;2023-06-22T09:47:00;17.17;;;12.50;;
78612;SDS011;67933;51.060;3.638;2023-06-22T09:49:27;20.75;;;13.13;;
78612;SDS011;67933;51.060;3.638;2023-06-22T09:51:52;18.63;;;12.95;;
78612;SDS011;67933;51.060;3.638;2023-06-22T09:54:18;18.50;;;14.50;;
78612;SDS011;67933;51.060;3.638;2023-06-22T09:56:43;20.77;;;13.65;;
78612;SDS011;67933;51.060;3.638;2023-06-22T09:59:12;19.38;;;13.80;;
78612;SDS011;67933;51.060;3.638;2023-06-22T10:01:37;22.50;;;14.18;;
78612;SDS011;67933;51.060;3.638;2023-06-22T10:04:02;21.23;;;13.73;;
78612;SDS011;67933;51.060;3.638;2023-06-22T10:06:28;21.33;;;14.82;;
78612;SDS011;67933;51.060;3.638;2023-06-22T10:08:55;19.35;;;12.90;;
78612;SDS011;67933;51.060;3.638;2023-06-22T10:11:22;19.38;;;13.10;;
78612;SDS011;67933;51.060;3.638;2023-06-22T10:13:52;19.45;;;13.38;;
78612;SDS011;67933;51.060;3.638;2023-06-22T10:16:17;22.35;;;14.02;;
78612;SDS011;67933;51.060;3.638;2023-06-22T10:18:42;22.75;;;14.30;;
78612;SDS011;67933;51.060;3.638;2023-06-22T10:21:08;19.20;;;13.20;;
78612;SDS011;67933;51.060;3.638;2023-06-22T10:23:33;21.00;;;14.30;;
78612;SDS011;67933;51.060;3.638;2023-06-22T10:25:59;19.75;;;13.80;;
78612;SDS011;67933;51.060;3.638;2023-06-22T10:28:24;21.77;;;14.07;;
78612;SDS011;67933;51.060;3.638;2023-06-22T10:30:50;23.75;;;14.95;;
78612;SDS011;67933;51.060;3.638;2023-06-22T10:33:15;19.35;;;14.02;;
78612;SDS011;67933;51.060;3.638;2023-06-22T10:35:40;21.95;;;14.02;;
78612;SDS011;67933;51.060;3.638;2023-06-22T10:38:06;27.70;;;14.32;;
78612;SDS011;67933;51.060;3.638;2023-06-22T10:40:33;22.40;;;14.73;;
78612;SDS011;67933;51.060;3.638;2023-06-22T10:42:59;22.02;;;14.50;;
78612;SDS011;67933;51.060;3.638;2023-06-22T10:45:24;23.45;;;14.77;;
78612;SDS011;67933;51.060;3.638;2023-06-22T10:47:52;21.52;;;14.93;;
78612;SDS011;67933;51.060;3.638;2023-06-22T10:50:17;21.90;;;13.85;;
78612;SDS011;67933;51.060;3.638;2023-06-22T10:52:43;24.67;;;15.35;;
78612;SDS011;67933;51.060;3.638;2023-06-22T10:55:08;22.10;;;14.60;;
78612;SDS011;67933;51.060;3.638;2023-06-22T10:57:34;21.42;;;14.02;;
78612;SDS011;67933;51.060;3.638;2023-06-22T11:00:01;23.15;;;14.30;;
78612;SDS011;67933;51.060;3.638;2023-06-22T11:02:29;21.05;;;12.68;;
78612;SDS011;67933;51.060;3.638;2023-06-22T11:04:54;14.60;;;10.48;;
78612;SDS011;67933;51.060;3.638;2023-06-22T11:07:20;18.17;;;11.88;;
78612;SDS011;67933;51.060;3.638;2023-06-22T11:09:45;20.90;;;13.05;;
78612;SDS011;67933;51.060;3.638;2023-06-22T11:12:11;16.63;;;11.35;;
78612;SDS011;67933;51.060;3.638;2023-06-22T11:14:38;14.88;;;10.07;;
78612;SDS011;67933;51.060;3.638;2023-06-22T11:17:05;17.42;;;11.63;;
78612;SDS011;67933;51.060;3.638;2023-06-22T11:19:30;16.27;;;11.00;;
78612;SDS011;67933;51.060;3.638;2023-06-22T11:21:56;17.90;;;11.15;;
78612;SDS011;67933;51.060;3.638;2023-06-22T11:24:22;17.58;;;11.93;;
78612;SDS011;67933;51.060;3.638;2023-06-22T11:26:47;17.35;;;11.88;;
78612;SDS011;67933;51.060;3.638;2023-06-22T11:29:13;16.63;;;12.00;;
78612;SDS011;67933;51.060;3.638;2023-06-22T11:31:38;16.27;;;10.95;;
78612;SDS011;67933;51.060;3.638;2023-06-22T11:34:07;15.40;;;11.25;;
78612;SDS011;67933;51.060;3.638;2023-06-22T11:36:33;18.95;;;12.02;;
78612;SDS011;67933;51.060;3.638;2023-06-22T11:39:09;16.63;;;10.23;;
78612;SDS011;67933;51.060;3.638;2023-06-22T11:41:34;12.85;;;8.98;;
78612;SDS011;67933;51.060;3.638;2023-06-22T11:44:00;16.08;;;10.40;;
78612;SDS011;67933;51.060;3.638;2023-06-22T11:46:25;16.80;;;9.98;;
78612;SDS011;67933;51.060;3.638;2023-06-22T11:48:51;14.50;;;10.02;;
78612;SDS011;67933;51.060;3.638;2023-06-22T11:51:16;15.88;;;10.30;;
78612;SDS011;67933;51.060;3.638;2023-06-22T11:53:42;15.23;;;10.40;;
78612;SDS011;67933;51.060;3.638;2023-06-22T11:56:07;18.40;;;11.85;;
78612;SDS011;67933;51.060;3.638;2023-06-22T11:58:32;20.65;;;12.43;;
78612;SDS011;67933;51.060;3.638;2023-06-22T12:00:58;17.05;;;11.93;;
78612;SDS011;67933;51.060;3.638;2023-06-22T12:03:23;17.45;;;13.27;;
78612;SDS011;67933;51.060;3.638;2023-06-22T12:05:49;20.83;;;14.18;;
78612;SDS011;67933;51.060;3.638;2023-06-22T12:08:15;20.05;;;13.18;;
78612;SDS011;67933;51.060;3.638;2023-06-22T12:10:40;22.63;;;15.00;;
78612;SDS011;67933;51.060;3.638;2023-06-22T12:13:06;24.58;;;16.63;;
78612;SDS011;67933;51.060;3.638;2023-06-22T12:15:31;24.48;;;17.50;;
78612;SDS011;67933;51.060;3.638;2023-06-22T12:17:56;24.83;;;16.10;;
78612;SDS011;67933;51.060;3.638;2023-06-22T12:20:22;20.92;;;13.65;;
78612;SDS011;67933;51.060;3.638;2023-06-22T12:22:47;20.83;;;12.02;;
78612;SDS011;67933;51.060;3.638;2023-06-22T12:25:14;18.02;;;12.45;;
78612;SDS011;67933;51.060;3.638;2023-06-22T12:27:40;18.55;;;11.77;;
78612;SDS011;67933;51.060;3.638;2023-06-22T12:30:05;16.15;;;11.95;;
78612;SDS011;67933;51.060;3.638;2023-06-22T12:32:31;17.77;;;11.98;;
78612;SDS011;67933;51.060;3.638;2023-06-22T12:34:56;14.77;;;10.65;;
78612;SDS011;67933;51.060;3.638;2023-06-22T12:37:22;16.58;;;11.52;;
78612;SDS011;67933;51.060;3.638;2023-06-22T12:39:48;18.65;;;11.32;;
78612;SDS011;67933;51.060;3.638;2023-06-22T12:42:14;17.55;;;10.88;;
78612;SDS011;67933;51.060;3.638;2023-06-22T12:44:41;14.70;;;10.30;;
78612;SDS011;67933;51.060;3.638;2023-06-22T12:47:07;15.13;;;11.05;;
78612;SDS011;67933;51.060;3.638;2023-06-22T12:49:34;14.85;;;9.43;;
78612;SDS011;67933;51.060;3.638;2023-06-22T12:52:00;14.90;;;9.23;;
78612;SDS011;67933;51.060;3.638;2023-06-22T12:54:25;17.73;;;10.60;;
78612;SDS011;67933;51.060;3.638;2023-06-22T12:56:51;12.73;;;9.25;;
78612;SDS011;67933;51.060;3.638;2023-06-22T12:59:16;17.77;;;9.55;;
78612;SDS011;67933;51.060;3.638;2023-06-22T13:01:42;14.77;;;9.57;;
78612;SDS011;67933;51.060;3.638;2023-06-22T13:04:10;15.50;;;9.65;;
78612;SDS011;67933;51.060;3.638;2023-06-22T13:06:38;14.02;;;9.13;;
78612;SDS011;67933;51.060;3.638;2023-06-22T13:09:03;14.50;;;9.75;;
78612;SDS011;67933;51.060;3.638;2023-06-22T13:11:30;13.95;;;9.35;;
78612;SDS011;67933;51.060;3.638;2023-06-22T13:13:55;15.52;;;10.52;;
78612;SDS011;67933;51.060;3.638;2023-06-22T13:16:20;15.65;;;10.40;;
78612;SDS011;67933;51.060;3.638;2023-06-22T13:18:46;16.88;;;10.00;;
78612;SDS011;67933;51.060;3.638;2023-06-22T13:21:11;14.48;;;10.15;;
78612;SDS011;67933;51.060;3.638;2023-06-22T13:23:37;14.10;;;9.75;;
78612;SDS011;67933;51.060;3.638;2023-06-22T13:26:02;13.70;;;8.98;;
78612;SDS011;67933;51.060;3.638;2023-06-22T13:28:27;16.15;;;11.07;;
78612;SDS011;67933;51.060;3.638;2023-06-22T13:30:55;16.17;;;9.98;;
